createdAt,value
2017-11-07T00:01:42.512Z,4.20
2017-11-07T00:04:10.078Z,4.20
2017-11-07T00:06:37.670Z,4.20
2017-11-07T00:09:05.231Z,4.10
2017-11-07T00:11:34.004Z,3.90
2017-11-07T00:14:01.576Z,3.70
2017-11-07T00:16:29.332Z,3.60
2017-11-07T00:18:56.913Z,3.70
2017-11-07T00:21:24.483Z,3.50
2017-11-07T00:23:52.046Z,3.40
2017-11-07T00:26:19.643Z,3.20
2017-11-07T00:28:47.984Z,2.90
2017-11-07T00:31:15.576Z,2.80
2017-11-07T00:33:43.160Z,2.90
2017-11-07T00:36:10.712Z,2.70
2017-11-07T00:38:38.298Z,2.60
2017-11-07T00:41:06.100Z,2.50
2017-11-07T00:43:34.542Z,2.20
2017-11-07T00:46:02.138Z,2.20
2017-11-07T00:48:29.699Z,2.20
2017-11-07T00:50:57.275Z,2.30
2017-11-07T00:53:25.633Z,2.80
2017-11-07T00:55:53.225Z,2.80
2017-11-07T00:58:21.564Z,2.70
2017-11-07T01:00:49.137Z,2.70
2017-11-07T01:03:16.746Z,2.60
2017-11-07T01:05:44.326Z,2.40
2017-11-07T01:08:11.908Z,2.20
2017-11-07T01:10:39.474Z,2.10
2017-11-07T01:13:07.086Z,1.90
2017-11-07T01:15:34.691Z,1.80
2017-11-07T01:18:02.251Z,1.80
2017-11-07T01:20:29.839Z,1.70
2017-11-07T01:22:57.422Z,1.70
2017-11-07T01:25:25.765Z,1.60
2017-11-07T01:27:53.352Z,1.50
2017-11-07T01:30:21.682Z,1.60
2017-11-07T01:32:49.231Z,1.60
2017-11-07T01:35:16.818Z,1.60
2017-11-07T01:37:44.374Z,1.60
2017-11-07T01:40:11.941Z,1.50
2017-11-07T01:42:39.744Z,1.50
2017-11-07T01:45:07.303Z,1.60
2017-11-07T01:47:34.904Z,1.70
2017-11-07T01:50:02.469Z,1.70
2017-11-07T01:52:30.038Z,1.60
2017-11-07T01:54:57.590Z,1.60
2017-11-07T01:57:25.202Z,1.70
2017-11-07T01:59:52.751Z,1.70
2017-11-07T02:02:20.326Z,1.70
2017-11-07T02:04:47.884Z,1.60
2017-11-07T02:07:15.457Z,1.40
2017-11-07T02:09:43.066Z,1.30
2017-11-07T02:12:10.697Z,1.30
2017-11-07T02:14:39.033Z,1.50
2017-11-07T02:17:06.608Z,1.50
2017-11-07T02:19:34.195Z,1.40
2017-11-07T02:22:02.538Z,1.20
2017-11-07T02:24:30.093Z,1.20
2017-11-07T02:26:57.665Z,1.00
2017-11-07T02:29:25.214Z,0.90
2017-11-07T02:31:53.058Z,0.90
2017-11-07T02:34:20.626Z,0.90
2017-11-07T02:36:48.396Z,0.80
2017-11-07T02:39:15.947Z,0.80
2017-11-07T02:41:43.515Z,0.80
2017-11-07T02:44:11.138Z,0.80
2017-11-07T02:46:39.460Z,0.90
2017-11-07T02:49:07.036Z,0.90
2017-11-07T02:51:34.601Z,0.90
2017-11-07T02:54:02.179Z,1.00
2017-11-07T02:56:29.753Z,1.00
2017-11-07T02:58:57.305Z,0.90
2017-11-07T03:01:24.927Z,0.80
2017-11-07T03:03:52.489Z,0.80
2017-11-07T03:06:20.067Z,1.00
2017-11-07T03:08:47.782Z,1.00
2017-11-07T03:11:15.834Z,1.00
2017-11-07T03:13:43.408Z,0.90
2017-11-07T03:16:11.750Z,0.70
2017-11-07T03:18:39.521Z,0.70
2017-11-07T03:21:07.083Z,0.50
2017-11-07T03:23:34.665Z,0.60
2017-11-07T03:26:02.240Z,0.40
2017-11-07T03:28:29.801Z,0.40
2017-11-07T03:30:58.135Z,0.30
2017-11-07T03:33:25.728Z,0.30
2017-11-07T03:35:53.289Z,0.30
2017-11-07T03:38:20.871Z,0.30
2017-11-07T03:40:49.187Z,0.60
2017-11-07T03:43:16.768Z,0.60
2017-11-07T03:45:44.358Z,0.60
2017-11-07T03:48:12.734Z,0.40
2017-11-07T03:50:40.341Z,0.40
2017-11-07T03:53:07.949Z,0.30
2017-11-07T03:55:36.295Z,0.10
2017-11-07T03:58:04.007Z,0.10
2017-11-07T04:00:32.357Z,0.20
2017-11-07T04:02:59.906Z,0.10
2017-11-07T04:05:27.497Z,0.10
2017-11-07T04:07:55.132Z,0.20
2017-11-07T04:10:22.708Z,0.20
2017-11-07T04:12:50.306Z,0.10
2017-11-07T04:15:18.709Z,0.50
2017-11-07T04:17:46.294Z,0.50
2017-11-07T04:20:13.853Z,0.80
2017-11-07T04:22:41.610Z,1.00
2017-11-07T04:25:09.168Z,1.50
2017-11-07T04:27:36.762Z,1.90
2017-11-07T04:30:04.334Z,1.90
2017-11-07T04:32:31.902Z,1.90
2017-11-07T04:34:59.450Z,2.00
2017-11-07T04:37:27.013Z,2.10
2017-11-07T04:39:54.588Z,2.20
2017-11-07T04:42:22.148Z,2.20
2017-11-07T04:44:49.721Z,2.20
2017-11-07T04:47:17.320Z,2.30
2017-11-07T04:49:44.983Z,2.30
2017-11-07T04:52:12.561Z,2.40
2017-11-07T04:54:40.127Z,2.50
2017-11-07T04:57:07.729Z,2.60
2017-11-07T04:59:36.049Z,2.70
2017-11-07T05:02:03.614Z,2.70
2017-11-07T05:04:31.179Z,2.70
2017-11-07T05:06:58.797Z,2.80
2017-11-07T05:09:27.119Z,2.80
2017-11-07T05:11:54.706Z,2.70
2017-11-07T05:14:22.282Z,2.80
2017-11-07T05:16:49.826Z,2.70
2017-11-07T05:19:17.663Z,2.70
2017-11-07T05:21:45.298Z,2.60
2017-11-07T05:24:13.715Z,2.30
2017-11-07T05:26:41.282Z,2.30
2017-11-07T05:29:08.873Z,2.20
2017-11-07T05:31:36.430Z,2.20
2017-11-07T05:34:04.025Z,2.10
2017-11-07T05:36:31.619Z,2.20
2017-11-07T05:38:59.213Z,2.10
2017-11-07T05:41:26.960Z,2.10
2017-11-07T05:43:54.531Z,2.10
2017-11-07T05:46:22.103Z,2.10
2017-11-07T05:48:49.681Z,2.10
2017-11-07T05:51:17.256Z,2.10
2017-11-07T05:53:45.605Z,2.10
2017-11-07T05:56:13.180Z,2.10
2017-11-07T05:58:40.749Z,2.10
2017-11-07T06:01:09.072Z,2.20
2017-11-07T06:03:36.652Z,2.20
2017-11-07T06:06:04.380Z,2.20
2017-11-07T06:08:31.950Z,2.10
2017-11-07T06:10:59.507Z,2.10
2017-11-07T06:13:27.820Z,2.10
2017-11-07T06:15:55.381Z,2.00
2017-11-07T06:18:22.954Z,2.00
2017-11-07T06:20:50.527Z,2.00
2017-11-07T06:23:18.083Z,2.00
2017-11-07T06:25:45.694Z,1.90
2017-11-07T06:28:13.275Z,1.80
2017-11-07T06:30:40.901Z,1.70
2017-11-07T06:33:09.266Z,1.50
2017-11-07T06:35:36.836Z,1.50
2017-11-07T06:38:05.287Z,1.40
2017-11-07T06:40:33.017Z,1.40
2017-11-07T06:43:00.583Z,1.30
2017-11-07T06:45:28.142Z,1.20
2017-11-07T06:47:55.734Z,1.30
2017-11-07T06:50:23.283Z,1.20
2017-11-07T06:52:50.921Z,1.10
2017-11-07T06:55:18.530Z,1.10
2017-11-07T06:57:46.102Z,1.10
2017-11-07T07:00:13.654Z,1.10
2017-11-07T07:02:41.260Z,1.10
2017-11-07T07:05:08.854Z,1.20
2017-11-07T07:07:36.543Z,1.40
2017-11-07T07:10:04.173Z,1.40
2017-11-07T07:12:31.756Z,1.40
2017-11-07T07:14:59.402Z,1.40
2017-11-07T07:17:26.987Z,1.50
2017-11-07T07:19:54.561Z,1.40
2017-11-07T07:22:22.142Z,1.40
2017-11-07T07:24:50.552Z,1.40
2017-11-07T07:27:18.194Z,1.40
2017-11-07T07:29:46.506Z,1.60
2017-11-07T07:32:14.081Z,1.50
2017-11-07T07:34:41.646Z,1.70
2017-11-07T07:37:09.256Z,1.70
2017-11-07T07:39:37.578Z,1.80
2017-11-07T07:42:05.156Z,1.70
2017-11-07T07:44:32.804Z,1.80
2017-11-07T07:47:00.375Z,1.80
2017-11-07T07:49:27.964Z,1.70
2017-11-07T07:52:14.077Z,1.90
2017-11-07T07:54:42.398Z,2.10
2017-11-07T07:57:09.969Z,2.10
2017-11-07T07:59:37.547Z,2.10
2017-11-07T08:02:05.119Z,2.10
2017-11-07T08:04:32.729Z,2.10
2017-11-07T08:07:00.296Z,2.00
2017-11-07T08:09:28.002Z,2.00
2017-11-07T08:11:55.598Z,2.00
2017-11-07T08:14:23.190Z,2.10
2017-11-07T08:16:50.908Z,2.20
2017-11-07T08:19:19.233Z,2.40
2017-11-07T08:21:46.822Z,2.40
2017-11-07T08:24:14.402Z,2.50
2017-11-07T08:26:43.174Z,2.70
2017-11-07T08:29:10.927Z,2.70
2017-11-07T08:31:38.507Z,2.80
2017-11-07T08:34:06.156Z,2.90
2017-11-07T08:36:33.743Z,2.90
2017-11-07T08:39:02.096Z,3.10
2017-11-07T08:41:29.713Z,3.10
2017-11-07T08:43:57.285Z,3.10
2017-11-07T08:46:24.850Z,3.20
2017-11-07T08:48:52.435Z,3.30
2017-11-07T08:51:20.012Z,3.30
2017-11-07T08:53:48.348Z,3.40
2017-11-07T08:56:15.935Z,3.40
2017-11-07T08:58:43.520Z,3.50
2017-11-07T09:01:11.133Z,3.70
2017-11-07T09:03:38.739Z,3.90
2017-11-07T09:06:06.295Z,4.00
2017-11-07T09:08:33.853Z,4.50
2017-11-07T09:11:01.419Z,4.60
2017-11-07T09:13:29.002Z,4.60
2017-11-07T09:15:57.374Z,5.00
2017-11-07T09:18:24.983Z,5.00
2017-11-07T09:20:52.550Z,5.70
2017-11-07T09:23:20.265Z,6.60
2017-11-07T09:25:47.900Z,7.20
2017-11-07T09:28:15.497Z,6.90
2017-11-07T09:30:43.827Z,8.10
2017-11-07T09:33:11.410Z,8.10
2017-11-07T09:35:38.991Z,8.00
2017-11-07T09:38:07.340Z,8.00
2017-11-07T09:40:34.894Z,8.00
2017-11-07T09:43:02.482Z,8.30
2017-11-07T09:45:30.936Z,8.60
2017-11-07T09:47:58.514Z,8.60
2017-11-07T09:50:26.128Z,8.50
2017-11-07T09:52:54.450Z,8.70
2017-11-07T09:55:22.039Z,8.70
2017-11-07T09:57:49.662Z,8.90
2017-11-07T10:00:17.224Z,8.60
2017-11-07T10:02:44.816Z,8.50
2017-11-07T10:05:12.537Z,8.50
2017-11-07T10:07:40.153Z,8.80
2017-11-07T10:10:08.556Z,11.10
2017-11-07T10:12:36.921Z,11.50
2017-11-07T10:15:04.529Z,11.40
2017-11-07T10:17:32.094Z,11.80
2017-11-07T10:19:59.695Z,12.40
2017-11-07T10:22:27.384Z,11.40
2017-11-07T10:24:54.966Z,9.80
2017-11-07T10:27:22.536Z,9.80
2017-11-07T10:29:50.155Z,9.00
2017-11-07T10:32:18.502Z,8.20
2017-11-07T10:34:46.149Z,8.20
2017-11-07T10:37:13.700Z,8.00
2017-11-07T10:39:41.315Z,8.30
2017-11-07T10:42:08.865Z,8.40
2017-11-07T10:44:36.454Z,9.20
2017-11-07T10:47:04.019Z,9.70
2017-11-07T10:49:31.624Z,9.90
2017-11-07T10:51:59.202Z,10.30
2017-11-07T10:54:26.800Z,10.70
2017-11-07T10:56:54.387Z,11.20
2017-11-07T10:59:22.745Z,10.60
2017-11-07T11:01:50.334Z,10.60
2017-11-07T11:04:18.688Z,13.20
2017-11-07T11:06:46.275Z,13.20
2017-11-07T11:09:14.709Z,13.80
2017-11-07T11:11:42.350Z,13.80
2017-11-07T11:14:09.902Z,13.40
2017-11-07T11:16:37.471Z,13.50
2017-11-07T11:19:05.120Z,14.10
2017-11-07T11:21:32.772Z,13.20
2017-11-07T11:24:01.074Z,12.90
2017-11-07T11:26:28.676Z,12.90
2017-11-07T11:28:56.271Z,12.00
2017-11-07T11:31:23.869Z,12.50
2017-11-07T11:33:51.431Z,12.40
2017-11-07T11:36:19.019Z,13.80
2017-11-07T11:38:46.596Z,14.30
2017-11-07T11:41:14.155Z,14.00
2017-11-07T11:43:41.740Z,12.00
2017-11-07T11:46:09.337Z,12.60
2017-11-07T11:48:37.173Z,12.40
2017-11-07T11:51:04.734Z,12.20
2017-11-07T11:53:32.386Z,11.30
2017-11-07T11:55:59.931Z,11.20
2017-11-07T11:58:27.591Z,10.50
2017-11-07T12:00:55.347Z,10.10
2017-11-07T12:03:22.958Z,10.00
2017-11-07T12:05:50.546Z,9.60
2017-11-07T12:08:18.123Z,9.30
2017-11-07T12:10:45.714Z,9.10
2017-11-07T12:13:13.298Z,9.20
2017-11-07T12:15:41.651Z,9.70
2017-11-07T12:18:09.219Z,9.70
2017-11-07T12:20:36.839Z,10.10
2017-11-07T12:23:04.535Z,9.50
2017-11-07T12:25:32.103Z,9.30
2017-11-07T12:27:59.695Z,9.20
2017-11-07T12:30:27.407Z,8.90
2017-11-07T12:32:54.979Z,8.70
2017-11-07T12:35:22.557Z,8.80
2017-11-07T12:38:12.084Z,8.70
2017-11-07T12:40:39.663Z,9.00
2017-11-07T12:43:07.243Z,9.00
2017-11-07T12:45:34.862Z,8.80
2017-11-07T12:48:03.411Z,8.70
2017-11-07T12:50:42.914Z,8.70
2017-11-07T12:53:10.534Z,8.50
2017-11-07T12:55:39.072Z,8.50
2017-11-07T12:58:06.650Z,8.50
2017-11-07T13:00:34.243Z,8.60
2017-11-07T13:03:01.871Z,8.60
2017-11-07T13:05:29.539Z,8.60
2017-11-07T13:07:57.132Z,8.40
2017-11-07T13:10:24.744Z,8.20
2017-11-07T13:12:52.344Z,8.20
2017-11-07T13:15:19.922Z,8.20
2017-11-07T13:17:47.669Z,8.10
2017-11-07T13:20:15.257Z,8.00
2017-11-07T13:22:42.907Z,8.10
2017-11-07T13:25:10.503Z,7.90
2017-11-07T13:27:38.076Z,7.80
2017-11-07T13:30:05.695Z,7.90
2017-11-07T13:32:33.263Z,7.80
2017-11-07T13:35:00.953Z,7.80
2017-11-07T13:37:29.317Z,7.80
2017-11-07T13:39:56.950Z,7.80
2017-11-07T13:42:24.538Z,7.80
2017-11-07T13:44:52.151Z,7.90
2017-11-07T13:47:19.796Z,7.80
2017-11-07T13:49:47.446Z,7.80
2017-11-07T13:52:15.841Z,7.70
2017-11-07T13:54:45.008Z,7.70
2017-11-07T13:57:12.575Z,7.80
2017-11-07T13:59:40.948Z,7.70
2017-11-07T14:02:08.531Z,7.70
2017-11-07T14:04:36.922Z,7.60
2017-11-07T14:07:04.658Z,7.60
2017-11-07T14:09:32.251Z,7.60
2017-11-07T14:11:59.851Z,7.60
2017-11-07T14:14:27.442Z,7.50
2017-11-07T14:16:55.818Z,7.40
2017-11-07T14:19:23.419Z,7.40
2017-11-07T14:21:51.003Z,7.40
2017-11-07T14:24:18.588Z,7.40
2017-11-07T14:26:46.154Z,7.40
2017-11-07T14:29:14.034Z,7.40
2017-11-07T14:31:41.607Z,7.30
2017-11-07T14:34:10.080Z,7.40
2017-11-07T14:36:37.881Z,7.40
2017-11-07T14:39:05.439Z,7.40
2017-11-07T14:41:33.439Z,7.30
2017-11-07T14:44:01.125Z,7.30
2017-11-07T14:46:28.873Z,7.30
2017-11-07T14:48:56.475Z,7.30
2017-11-07T14:51:24.083Z,7.30
2017-11-07T14:53:51.737Z,7.30
2017-11-07T14:56:19.336Z,7.30
2017-11-07T14:58:46.928Z,7.20
2017-11-07T15:01:15.290Z,7.20
2017-11-07T15:03:42.915Z,7.20
2017-11-07T15:06:10.532Z,7.10
2017-11-07T15:08:38.172Z,7.10
2017-11-07T15:11:05.767Z,7.10
2017-11-07T15:13:33.339Z,7.10
2017-11-07T15:16:01.723Z,7.00
2017-11-07T15:18:30.095Z,7.00
2017-11-07T15:20:57.672Z,7.00
2017-11-07T15:23:26.229Z,7.00
2017-11-07T15:25:53.844Z,7.00
2017-11-07T15:28:21.465Z,7.00
2017-11-07T15:30:49.068Z,7.00
2017-11-07T15:33:16.655Z,7.00
2017-11-07T15:35:44.275Z,7.00
2017-11-07T15:38:12.619Z,6.90
2017-11-07T15:40:40.276Z,6.90
2017-11-07T15:43:07.913Z,6.90
2017-11-07T15:45:35.553Z,6.90
2017-11-07T15:48:03.135Z,6.90
2017-11-07T15:50:30.773Z,6.80
2017-11-07T15:52:59.122Z,6.80
2017-11-07T15:55:27.576Z,6.80
2017-11-07T15:57:55.188Z,6.80
2017-11-07T16:00:23.563Z,6.80
2017-11-07T16:02:51.162Z,6.80
2017-11-07T16:05:18.747Z,6.80
2017-11-07T16:07:46.344Z,6.80
2017-11-07T16:10:13.947Z,6.80
2017-11-07T16:12:41.520Z,6.80
2017-11-07T16:15:09.107Z,6.80
2017-11-07T16:17:36.674Z,6.80
2017-11-07T16:20:04.294Z,6.80
2017-11-07T16:22:31.886Z,6.80
2017-11-07T16:24:59.496Z,6.80
2017-11-07T16:27:27.887Z,6.80
2017-11-07T16:29:55.480Z,6.70
2017-11-07T16:32:23.057Z,6.80
2017-11-07T16:34:50.634Z,6.70
2017-11-07T16:37:19.004Z,6.70
2017-11-07T16:39:46.974Z,6.70
2017-11-07T16:42:14.713Z,6.70
2017-11-07T16:44:42.450Z,6.70
2017-11-07T16:47:10.325Z,6.70
2017-11-07T16:49:37.941Z,6.70
2017-11-07T16:52:05.533Z,6.70
2017-11-07T16:54:33.868Z,6.60
2017-11-07T16:57:01.486Z,6.60
2017-11-07T16:59:29.195Z,6.60
2017-11-07T17:01:56.823Z,6.60
2017-11-07T17:04:24.533Z,6.60
2017-11-07T17:06:52.150Z,6.60
2017-11-07T17:09:19.720Z,6.60
2017-11-07T17:11:48.131Z,6.60
2017-11-07T17:14:15.719Z,6.60
2017-11-07T17:16:43.379Z,6.60
2017-11-07T17:19:10.971Z,6.50
2017-11-07T17:21:38.539Z,6.40
2017-11-07T17:24:06.122Z,6.40
2017-11-07T17:26:34.489Z,6.30
2017-11-07T17:29:02.844Z,6.30
2017-11-07T17:31:30.432Z,6.30
2017-11-07T17:33:58.770Z,6.30
2017-11-07T17:36:26.432Z,6.30
2017-11-07T17:38:54.014Z,6.30
2017-11-07T17:41:21.598Z,6.30
2017-11-07T17:43:49.972Z,6.20
2017-11-07T17:46:17.584Z,6.20
2017-11-07T17:48:45.371Z,6.20
2017-11-07T17:51:13.740Z,6.20
2017-11-07T17:53:41.340Z,6.20
2017-11-07T17:56:08.968Z,6.20
2017-11-07T17:58:36.563Z,6.20
2017-11-07T18:01:04.250Z,6.20
2017-11-07T18:03:32.670Z,6.10
2017-11-07T18:06:00.264Z,6.20
2017-11-07T18:08:27.831Z,6.20
2017-11-07T18:10:55.487Z,6.20
2017-11-07T18:13:23.958Z,6.10
2017-11-07T18:15:52.287Z,6.10
2017-11-07T18:18:19.858Z,6.10
2017-11-07T18:20:48.295Z,6.00
2017-11-07T18:23:16.805Z,6.00
2017-11-07T18:25:44.413Z,6.00
2017-11-07T18:28:12.030Z,5.90
2017-11-07T18:30:39.671Z,5.90
2017-11-07T18:33:07.272Z,5.90
2017-11-07T18:35:34.874Z,6.00
2017-11-07T18:38:03.281Z,6.00
2017-11-07T18:40:30.914Z,6.00
2017-11-07T18:42:58.529Z,6.10
2017-11-07T18:45:26.092Z,6.10
2017-11-07T18:47:53.731Z,6.20
2017-11-07T18:50:22.115Z,6.30
2017-11-07T18:52:49.742Z,6.20
2017-11-07T18:55:17.482Z,6.30
2017-11-07T18:57:45.064Z,6.50
2017-11-07T19:00:12.917Z,6.60
2017-11-07T19:02:40.738Z,6.70
2017-11-07T19:05:08.342Z,6.70
2017-11-07T19:07:35.966Z,6.70
2017-11-07T19:10:03.568Z,6.80
2017-11-07T19:12:31.149Z,6.80
2017-11-07T19:14:58.759Z,6.80
2017-11-07T19:17:27.871Z,6.80
2017-11-07T19:19:55.817Z,6.80
2017-11-07T19:22:24.161Z,6.80
2017-11-07T19:24:51.764Z,6.80
2017-11-07T19:27:20.184Z,6.80
2017-11-07T19:29:47.821Z,6.80
2017-11-07T19:32:15.736Z,6.80
2017-11-07T19:34:43.325Z,6.70
2017-11-07T19:37:11.677Z,6.60
2017-11-07T19:39:39.516Z,6.60
2017-11-07T19:42:07.148Z,6.60
2017-11-07T19:44:35.487Z,6.60
2017-11-07T19:47:03.083Z,6.60
2017-11-07T19:49:30.785Z,6.50
2017-11-07T19:51:58.520Z,6.40
2017-11-07T19:54:26.916Z,6.20
2017-11-07T19:56:54.521Z,6.20
2017-11-07T19:59:22.136Z,6.10
2017-11-07T20:01:49.744Z,6.00
2017-11-07T20:04:17.968Z,5.90
2017-11-07T20:06:46.316Z,5.90
2017-11-07T20:09:13.898Z,5.80
2017-11-07T20:11:42.282Z,5.70
2017-11-07T20:14:09.881Z,5.70
2017-11-07T20:16:37.546Z,5.70
2017-11-07T20:19:05.133Z,5.60
2017-11-07T20:21:32.698Z,5.50
2017-11-07T20:24:01.187Z,5.30
2017-11-07T20:26:29.131Z,5.30
2017-11-07T20:28:56.757Z,5.20
2017-11-07T20:31:25.135Z,5.10
2017-11-07T20:33:53.508Z,5.00
2017-11-07T20:36:21.160Z,5.00
2017-11-07T20:38:49.523Z,4.70
2017-11-07T20:41:17.183Z,4.70
2017-11-07T20:43:44.763Z,4.50
2017-11-07T20:46:12.380Z,4.40
2017-11-07T20:48:40.094Z,4.30
2017-11-07T20:51:07.818Z,4.20
2017-11-07T20:53:35.525Z,4.10
2017-11-07T20:56:03.125Z,4.00
2017-11-07T20:58:32.241Z,4.00
2017-11-07T21:00:59.819Z,4.00
2017-11-07T21:03:27.404Z,3.90
2017-11-07T21:05:55.079Z,3.90
2017-11-07T21:08:22.648Z,3.90
2017-11-07T21:10:50.285Z,4.10
2017-11-07T21:13:19.069Z,3.90
2017-11-07T21:15:47.445Z,4.00
2017-11-07T21:18:16.649Z,4.10
2017-11-07T21:20:46.040Z,4.10
2017-11-07T21:23:13.647Z,3.90
2017-11-07T21:25:42.291Z,3.80
2017-11-07T21:28:09.880Z,3.90
2017-11-07T21:30:38.225Z,3.90
2017-11-07T21:33:05.825Z,3.90
2017-11-07T21:35:33.462Z,4.00
2017-11-07T21:38:01.836Z,4.00
2017-11-07T21:40:29.440Z,4.00
2017-11-07T21:42:57.073Z,4.10
2017-11-07T21:45:25.754Z,4.40
2017-11-07T21:47:54.111Z,4.50
2017-11-07T21:50:21.695Z,4.50
2017-11-07T21:52:49.284Z,4.60
2017-11-07T21:55:16.887Z,4.70
2017-11-07T21:57:45.264Z,4.90
2017-11-07T22:00:13.887Z,5.00
2017-11-07T22:02:41.683Z,4.90
2017-11-07T22:05:09.278Z,5.00
2017-11-07T22:07:37.054Z,5.00
2017-11-07T22:10:04.749Z,5.10
2017-11-07T22:12:32.397Z,5.10
2017-11-07T22:15:00.221Z,5.10
2017-11-07T22:17:28.688Z,5.10
2017-11-07T22:19:56.342Z,5.20
2017-11-07T22:22:24.032Z,5.30
2017-11-07T22:24:51.650Z,5.30
2017-11-07T22:27:19.338Z,5.30
2017-11-07T22:29:46.979Z,5.30
2017-11-07T22:32:14.694Z,5.30
2017-11-07T22:34:42.378Z,5.40
2017-11-07T22:37:10.802Z,5.40
2017-11-07T22:39:40.620Z,5.50
2017-11-07T22:42:08.771Z,5.40
2017-11-07T22:44:36.530Z,5.50
2017-11-07T22:47:04.166Z,5.50
2017-11-07T22:49:32.069Z,5.50
2017-11-07T22:51:59.729Z,5.50
2017-11-07T22:54:28.270Z,5.60
2017-11-07T22:56:55.937Z,5.60
2017-11-07T22:59:24.380Z,5.60
2017-11-07T23:01:52.169Z,5.60
2017-11-07T23:04:19.783Z,5.60
2017-11-07T23:06:48.823Z,5.60
2017-11-07T23:09:16.414Z,5.70
2017-11-07T23:11:44.000Z,5.70
2017-11-07T23:14:11.567Z,5.70
2017-11-07T23:16:39.149Z,5.70
2017-11-07T23:19:06.813Z,5.70
2017-11-07T23:21:34.398Z,5.70
2017-11-07T23:24:02.052Z,5.70
2017-11-07T23:26:29.814Z,5.70
2017-11-07T23:28:57.427Z,5.70
2017-11-07T23:31:25.084Z,5.70
2017-11-07T23:33:52.737Z,5.70
2017-11-07T23:36:20.311Z,5.70
2017-11-07T23:38:48.642Z,5.70
2017-11-07T23:41:16.245Z,5.70
2017-11-07T23:43:43.909Z,5.70
2017-11-07T23:46:11.493Z,5.70
2017-11-07T23:48:39.861Z,5.70
2017-11-07T23:51:07.448Z,5.70
2017-11-07T23:53:35.047Z,5.70
2017-11-07T23:56:02.625Z,5.80
2017-11-07T23:58:30.343Z,5.80
